Time;durP1;ratioP1;P1;durP2;ratioP2;P2;SDS_P1;SDS_P2;PMS_P1;PMS_P2;Temp;Humidity;BMP_temperature;BMP_pressure;BME280_temperature;BME280_humidity;BME280_pressure;Samples;Min_cycle;Max_cycle;Signal;HPM_P1;HPM_P2
2023/05/07 00:00:18;;;;;;;1.53;1.43;;;19.90;49.30;;;;;;4997068;28;20466;-73
2023/05/07 00:02:45;;;;;;;1.70;1.60;;;19.90;49.30;;;;;;5003131;28;20564;-73
2023/05/07 00:05:10;;;;;;;1.70;1.60;;;19.90;49.30;;;;;;4998136;28;20329;-73
2023/05/07 00:07:36;;;;;;;1.40;1.30;;;19.90;49.30;;;;;;4994669;28;20456;-73
2023/05/07 00:10:02;;;;;;;1.50;1.40;;;20.00;49.40;;;;;;5003027;28;20670;-73
2023/05/07 00:12:31;;;;;;;1.60;1.50;;;19.90;49.30;;;;;;5003589;28;20220;-73
2023/05/07 00:14:57;;;;;;;1.40;1.30;;;20.00;49.40;;;;;;5010066;28;20514;-72
2023/05/07 00:17:22;;;;;;;1.57;1.40;;;19.90;49.30;;;;;;5007296;28;20434;-73
2023/05/07 00:19:48;;;;;;;1.50;1.40;;;20.00;49.30;;;;;;4993383;28;20248;-73
2023/05/07 00:22:13;;;;;;;1.53;1.43;;;19.90;49.50;;;;;;5009175;28;20233;-73
2023/05/07 00:24:39;;;;;;;1.40;1.30;;;19.90;49.30;;;;;;5010917;28;20213;-73
2023/05/07 00:27:05;;;;;;;1.40;1.30;;;19.90;49.30;;;;;;5006610;28;21947;-73
2023/05/07 00:29:30;;;;;;;1.73;1.63;;;19.90;49.30;;;;;;5010478;28;20496;-73
2023/05/07 00:31:56;;;;;;;1.47;1.37;;;19.90;49.30;;;;;;5010254;28;20230;-73
2023/05/07 00:34:22;;;;;;;1.30;1.20;;;19.90;49.40;;;;;;5006583;28;20217;-73
2023/05/07 00:36:47;;;;;;;1.43;1.33;;;19.90;49.40;;;;;;4984069;28;20224;-73
2023/05/07 00:39:13;;;;;;;2.37;1.43;;;19.90;49.50;;;;;;4998050;28;20478;-73
2023/05/07 00:41:39;;;;;;;1.50;1.30;;;19.90;49.30;;;;;;5002035;28;20574;-73
2023/05/07 00:44:04;;;;;;;1.60;1.50;;;19.90;49.40;;;;;;5012888;28;20211;-73
2023/05/07 00:46:31;;;;;;;1.70;1.60;;;19.90;49.50;;;;;;5002816;28;20335;-73
2023/05/07 00:48:57;;;;;;;1.50;1.40;;;19.90;49.50;;;;;;5013030;28;20722;-73
2023/05/07 00:51:26;;;;;;;2.07;1.63;;;19.90;49.40;;;;;;5010702;28;20439;-73
2023/05/07 00:53:52;;;;;;;1.40;1.30;;;19.90;49.40;;;;;;4999714;28;20486;-74
2023/05/07 00:56:17;;;;;;;1.37;1.27;;;19.90;49.60;;;;;;5006293;28;20427;-74
2023/05/07 00:58:43;;;;;;;1.70;1.60;;;19.90;49.50;;;;;;5001819;28;20227;-73
2023/05/07 01:01:09;;;;;;;1.40;1.30;;;19.90;49.40;;;;;;5009710;28;20277;-73
2023/05/07 01:03:35;;;;;;;1.50;1.40;;;19.90;49.50;;;;;;5008982;28;20306;-74
2023/05/07 01:06:02;;;;;;;1.47;1.37;;;19.90;49.50;;;;;;5003213;28;20695;-73
2023/05/07 01:08:29;;;;;;;1.53;1.43;;;19.90;49.50;;;;;;5000019;28;20239;-73
2023/05/07 01:10:57;;;;;;;2.00;1.50;;;19.90;49.50;;;;;;4991342;28;21012;-73
2023/05/07 01:13:23;;;;;;;1.50;1.40;;;19.90;49.50;;;;;;5009168;28;20439;-74
2023/05/07 01:15:49;;;;;;;1.57;1.47;;;19.90;49.50;;;;;;5005663;28;20974;-74
2023/05/07 01:18:15;;;;;;;1.43;1.33;;;19.90;49.50;;;;;;5007462;28;20450;-73
2023/05/07 01:20:41;;;;;;;1.30;1.20;;;19.90;49.60;;;;;;5005888;28;20231;-74
2023/05/07 01:23:07;;;;;;;1.40;1.30;;;19.90;49.50;;;;;;4998271;28;20253;-73
2023/05/07 01:25:32;;;;;;;1.53;1.43;;;19.90;49.50;;;;;;4988850;28;20464;-74
2023/05/07 01:28:00;;;;;;;1.40;1.30;;;19.90;49.50;;;;;;4996328;28;20234;-74
2023/05/07 01:30:26;;;;;;;1.63;1.53;;;19.90;49.50;;;;;;4992807;28;20226;-73
2023/05/07 01:33:01;;;;;;;1.53;1.43;;;19.90;49.60;;;;;;4987751;28;20461;-73
2023/05/07 01:35:35;;;;;;;1.40;1.30;;;19.90;49.50;;;;;;4998113;28;21144;-73
2023/05/07 01:38:04;;;;;;;1.40;1.30;;;19.90;49.60;;;;;;4998505;28;22901;-73
2023/05/07 01:40:30;;;;;;;1.20;1.10;;;19.90;49.60;;;;;;5009555;28;21110;-74
2023/05/07 01:42:56;;;;;;;1.60;1.50;;;19.90;49.60;;;;;;5020257;28;20428;-73
2023/05/07 01:45:22;;;;;;;1.40;1.30;;;19.90;49.60;;;;;;5003813;28;20223;-74
2023/05/07 01:47:49;;;;;;;1.50;1.40;;;19.90;49.60;;;;;;4994501;28;20556;-73
2023/05/07 01:50:18;;;;;;;1.60;1.50;;;19.90;49.60;;;;;;5008552;28;20230;-73
2023/05/07 01:52:43;;;;;;;2.20;1.50;;;19.90;49.60;;;;;;4999482;28;20943;-73
2023/05/07 01:55:09;;;;;;;1.20;1.10;;;19.90;49.60;;;;;;4997103;28;20435;-74
2023/05/07 01:57:35;;;;;;;1.30;1.20;;;19.90;49.60;;;;;;5009615;28;20229;-73
2023/05/07 02:00:02;;;;;;;1.40;1.30;;;19.90;49.60;;;;;;4993548;28;20216;-73
2023/05/07 02:02:28;;;;;;;1.40;1.30;;;19.90;49.70;;;;;;5006060;28;20221;-73
2023/05/07 02:04:53;;;;;;;1.40;1.30;;;19.90;49.70;;;;;;4995164;28;20806;-73
2023/05/07 02:07:19;;;;;;;1.23;1.13;;;19.90;49.70;;;;;;5008559;28;20323;-73
2023/05/07 02:09:44;;;;;;;1.50;1.40;;;19.90;49.60;;;;;;5004399;28;20219;-73
2023/05/07 02:12:10;;;;;;;1.40;1.30;;;19.90;49.70;;;;;;5010860;28;20238;-74
2023/05/07 02:14:35;;;;;;;1.50;1.40;;;19.90;49.70;;;;;;4995459;28;20215;-73
2023/05/07 02:17:01;;;;;;;1.33;1.23;;;19.90;49.70;;;;;;5002124;28;20769;-74
2023/05/07 02:19:26;;;;;;;1.53;1.43;;;19.90;49.70;;;;;;5007574;28;20306;-73
2023/05/07 02:21:52;;;;;;;1.40;1.30;;;19.80;49.60;;;;;;4988043;28;20227;-73
2023/05/07 02:24:18;;;;;;;1.60;1.50;;;19.80;49.50;;;;;;5000680;28;20300;-73
2023/05/07 02:26:43;;;;;;;1.50;1.40;;;19.90;49.60;;;;;;5011465;28;20438;-73
2023/05/07 02:29:09;;;;;;;1.40;1.30;;;19.80;49.50;;;;;;5005302;28;20261;-74
2023/05/07 02:31:34;;;;;;;1.40;1.30;;;19.80;49.60;;;;;;4999593;28;20736;-74
2023/05/07 02:34:00;;;;;;;1.30;1.20;;;19.80;49.60;;;;;;5007592;28;20360;-74
2023/05/07 02:36:26;;;;;;;1.50;1.40;;;19.80;49.50;;;;;;4992502;28;20226;-73
2023/05/07 02:38:54;;;;;;;1.50;1.40;;;19.90;49.70;;;;;;4998421;28;20242;-74
2023/05/07 02:41:20;;;;;;;1.30;1.20;;;19.80;49.60;;;;;;5006483;28;20464;-73
2023/05/07 02:43:46;;;;;;;1.47;1.37;;;19.80;49.60;;;;;;5006146;28;20466;-72
2023/05/07 02:46:11;;;;;;;1.60;1.50;;;19.80;49.60;;;;;;5000667;28;20246;-74
2023/05/07 02:48:37;;;;;;;1.40;1.30;;;19.80;49.60;;;;;;4999640;28;20666;-73
2023/05/07 02:51:03;;;;;;;1.40;1.30;;;19.90;49.70;;;;;;4999757;28;20335;-74
2023/05/07 02:53:29;;;;;;;1.40;1.30;;;19.90;49.70;;;;;;5006155;28;20706;-73
2023/05/07 02:55:59;;;;;;;1.47;1.37;;;19.90;49.70;;;;;;4999849;28;20448;-74
2023/05/07 02:58:26;;;;;;;1.50;1.40;;;19.80;49.70;;;;;;5008559;28;20223;-74
2023/05/07 03:00:52;;;;;;;1.53;1.40;;;19.90;49.70;;;;;;4984750;28;20436;-74
2023/05/07 03:03:17;;;;;;;1.50;1.40;;;19.80;49.80;;;;;;5001240;28;20480;-74
2023/05/07 03:05:43;;;;;;;1.60;1.50;;;19.90;49.70;;;;;;5005504;28;20498;-74
2023/05/07 03:08:09;;;;;;;1.53;1.43;;;19.90;49.70;;;;;;4999874;28;20800;-74
2023/05/07 03:10:36;;;;;;;1.70;1.50;;;19.80;49.70;;;;;;5006327;28;20223;-74
2023/05/07 03:13:02;;;;;;;1.60;1.40;;;19.80;49.60;;;;;;4999166;28;20979;-73
2023/05/07 03:15:27;;;;;;;1.40;1.30;;;19.90;49.80;;;;;;4998461;28;20440;-74
2023/05/07 03:17:53;;;;;;;1.53;1.43;;;19.80;49.70;;;;;;4995342;28;20584;-74
2023/05/07 03:20:18;;;;;;;2.23;2.13;;;19.80;49.70;;;;;;5008876;28;20237;-74
2023/05/07 03:22:44;;;;;;;1.17;1.07;;;19.80;49.70;;;;;;5000441;28;20227;-74
2023/05/07 03:25:09;;;;;;;1.60;1.50;;;19.80;49.70;;;;;;4998890;28;20215;-73
2023/05/07 03:27:35;;;;;;;1.50;1.40;;;19.80;49.70;;;;;;5004811;28;20226;-73
2023/05/07 03:30:00;;;;;;;1.43;1.33;;;19.80;49.70;;;;;;5004457;28;20302;-74
2023/05/07 03:32:26;;;;;;;1.50;1.40;;;19.80;49.80;;;;;;5003281;28;20243;-74
2023/05/07 03:34:52;;;;;;;1.50;1.40;;;19.80;49.70;;;;;;5004934;28;20628;-73
2023/05/07 03:37:17;;;;;;;1.37;1.27;;;19.80;49.70;;;;;;4997399;28;20308;-73
2023/05/07 03:39:46;;;;;;;1.33;1.23;;;19.80;49.70;;;;;;5007106;28;20720;-73
2023/05/07 03:42:11;;;;;;;1.50;1.40;;;19.90;50.30;;;;;;4992529;28;20692;-74
2023/05/07 03:44:37;;;;;;;1.40;1.30;;;19.80;49.70;;;;;;5004857;28;20459;-74
2023/05/07 03:47:03;;;;;;;1.57;1.47;;;19.80;49.70;;;;;;5001239;28;20294;-74
2023/05/07 03:49:28;;;;;;;1.47;1.37;;;19.80;49.70;;;;;;5010609;28;20238;-74
2023/05/07 03:51:54;;;;;;;2.23;1.30;;;19.90;49.90;;;;;;5011282;28;20444;-74
2023/05/07 03:54:19;;;;;;;1.40;1.30;;;19.90;49.80;;;;;;4999175;28;20285;-74
2023/05/07 03:56:45;;;;;;;1.40;1.30;;;19.80;49.80;;;;;;5006225;28;20222;-74
2023/05/07 03:59:11;;;;;;;1.50;1.40;;;19.80;49.70;;;;;;5012539;28;20245;-74
2023/05/07 04:01:37;;;;;;;1.50;1.40;;;19.80;49.80;;;;;;4997356;28;20282;-73
2023/05/07 04:04:03;;;;;;;1.40;1.20;;;19.80;49.70;;;;;;4992760;28;20595;-73
2023/05/07 04:06:28;;;;;;;1.60;1.50;;;19.90;49.80;;;;;;4997353;28;20228;-74
2023/05/07 04:08:54;;;;;;;1.30;1.20;;;19.80;49.70;;;;;;5007792;28;20234;-74
2023/05/07 04:11:20;;;;;;;1.40;1.30;;;19.90;49.80;;;;;;5007610;28;20238;-74
2023/05/07 04:13:45;;;;;;;1.50;1.40;;;19.90;49.80;;;;;;5009873;28;20951;-73
2023/05/07 04:16:11;;;;;;;1.57;1.40;;;19.80;49.70;;;;;;4999287;28;20471;-73
2023/05/07 04:18:36;;;;;;;1.40;1.30;;;19.80;49.70;;;;;;5006377;28;20235;-74
2023/05/07 04:21:02;;;;;;;1.67;1.57;;;19.90;50.10;;;;;;4999817;28;20300;-74
2023/05/07 04:23:28;;;;;;;1.23;1.13;;;19.80;49.70;;;;;;4997499;28;20226;-73
2023/05/07 04:25:54;;;;;;;1.60;1.50;;;19.80;49.80;;;;;;4996926;28;20321;-74
2023/05/07 04:28:20;;;;;;;1.70;1.60;;;19.80;49.80;;;;;;4993688;28;20227;-73
2023/05/07 04:30:46;;;;;;;1.50;1.40;;;19.80;49.80;;;;;;5004215;28;20425;-74
2023/05/07 04:33:11;;;;;;;1.63;1.53;;;19.80;49.70;;;;;;4997663;28;20602;-74
2023/05/07 04:35:37;;;;;;;1.60;1.50;;;19.80;49.80;;;;;;4983686;28;20577;-74
2023/05/07 04:38:03;;;;;;;1.70;1.60;;;19.80;49.70;;;;;;5005127;28;20218;-74
2023/05/07 04:40:28;;;;;;;1.70;1.60;;;19.80;49.70;;;;;;4987380;28;20219;-74
2023/05/07 04:42:54;;;;;;;1.60;1.40;;;19.80;49.70;;;;;;4995556;28;20306;-73
2023/05/07 04:45:20;;;;;;;1.60;1.50;;;19.80;49.60;;;;;;5005742;28;20235;-74
2023/05/07 04:47:46;;;;;;;1.80;1.70;;;19.80;49.80;;;;;;5007695;28;20239;-74
2023/05/07 04:50:11;;;;;;;8.23;2.37;;;19.80;49.80;;;;;;4990637;28;20525;-74
2023/05/07 04:52:37;;;;;;;1.63;1.53;;;19.80;49.60;;;;;;4997819;28;20693;-74
2023/05/07 04:55:03;;;;;;;1.77;1.67;;;19.90;49.80;;;;;;4994393;28;20696;-73
2023/05/07 04:57:29;;;;;;;1.73;1.63;;;19.80;49.60;;;;;;4976677;28;20220;-73
2023/05/07 04:59:54;;;;;;;2.00;1.90;;;19.80;49.60;;;;;;5007658;28;20314;-73
2023/05/07 05:02:20;;;;;;;1.70;1.60;;;19.80;49.60;;;;;;5002914;28;20220;-73
2023/05/07 05:04:45;;;;;;;1.80;1.70;;;19.80;49.70;;;;;;5012764;28;20317;-73
2023/05/07 05:07:11;;;;;;;1.60;1.50;;;19.80;49.60;;;;;;5013852;28;20227;-73
2023/05/07 05:09:36;;;;;;;1.93;1.83;;;19.80;49.60;;;;;;5005684;28;20215;-73
2023/05/07 05:12:02;;;;;;;1.60;1.50;;;19.80;49.60;;;;;;4987902;28;20254;-73
2023/05/07 05:14:28;;;;;;;1.60;1.50;;;19.80;49.60;;;;;;4991890;28;20676;-74
2023/05/07 05:16:53;;;;;;;1.70;1.60;;;19.90;49.70;;;;;;5000561;28;20677;-74
2023/05/07 05:19:19;;;;;;;1.50;1.40;;;19.80;49.60;;;;;;5012621;28;20210;-74
2023/05/07 05:21:44;;;;;;;1.60;1.50;;;19.80;49.50;;;;;;5009856;28;20301;-74
2023/05/07 05:24:10;;;;;;;1.63;1.53;;;19.90;49.70;;;;;;5002312;28;20318;-74
2023/05/07 05:26:35;;;;;;;1.50;1.40;;;19.80;49.50;;;;;;4992246;28;20230;-74
2023/05/07 05:29:01;;;;;;;1.47;1.37;;;19.80;49.50;;;;;;4984655;28;20227;-74
2023/05/07 05:31:26;;;;;;;1.60;1.50;;;19.80;49.50;;;;;;5009179;28;20235;-74
2023/05/07 05:33:52;;;;;;;1.77;1.67;;;19.90;49.60;;;;;;5010888;28;20225;-74
2023/05/07 05:36:17;;;;;;;1.67;1.57;;;19.90;49.60;;;;;;5006854;28;20215;-74
2023/05/07 05:38:44;;;;;;;1.53;1.43;;;19.90;49.60;;;;;;5001852;28;20250;-73
2023/05/07 05:41:10;;;;;;;1.80;1.70;;;19.90;50.40;;;;;;5008498;28;20873;-74
2023/05/07 05:43:35;;;;;;;1.87;1.77;;;19.90;49.60;;;;;;5005885;28;20435;-74
2023/05/07 05:46:01;;;;;;;1.70;1.60;;;19.90;49.60;;;;;;5009524;28;20475;-74
2023/05/07 05:48:27;;;;;;;1.40;1.30;;;19.90;49.60;;;;;;5008985;28;20214;-74
2023/05/07 05:50:52;;;;;;;1.40;1.30;;;19.90;49.60;;;;;;5017638;28;20219;-73
2023/05/07 05:53:18;;;;;;;1.60;1.50;;;19.90;49.60;;;;;;5013557;28;20844;-74
2023/05/07 05:55:44;;;;;;;1.50;1.40;;;19.90;49.70;;;;;;5011437;28;20231;-74
2023/05/07 05:58:09;;;;;;;1.80;1.70;;;19.90;49.60;;;;;;5010895;28;20223;-74
2023/05/07 06:00:35;;;;;;;1.70;1.60;;;19.90;49.60;;;;;;5005543;28;20608;-73
2023/05/07 06:03:01;;;;;;;1.50;1.40;;;19.90;49.60;;;;;;4992255;28;20303;-73
2023/05/07 06:05:26;;;;;;;1.50;1.40;;;19.90;49.60;;;;;;5007914;28;20690;-74
2023/05/07 06:07:52;;;;;;;1.47;1.37;;;19.90;49.60;;;;;;5006644;28;20228;-73
2023/05/07 06:10:17;;;;;;;1.63;1.53;;;19.90;49.70;;;;;;5005641;28;20223;-73
2023/05/07 06:12:44;;;;;;;1.60;1.50;;;19.90;49.60;;;;;;5005809;28;20670;-73
2023/05/07 06:15:10;;;;;;;1.70;1.60;;;19.90;49.60;;;;;;5011507;28;20226;-73
2023/05/07 06:17:36;;;;;;;1.63;1.53;;;19.90;49.70;;;;;;5007423;28;20439;-73
2023/05/07 06:20:01;;;;;;;1.87;1.67;;;19.90;49.60;;;;;;5009729;28;20467;-73
2023/05/07 06:22:27;;;;;;;1.60;1.50;;;19.90;49.60;;;;;;4993802;28;20277;-74
2023/05/07 06:24:52;;;;;;;1.60;1.50;;;19.90;49.60;;;;;;4995535;28;20227;-73
2023/05/07 06:27:18;;;;;;;1.60;1.50;;;19.90;49.70;;;;;;5002843;28;20227;-74
2023/05/07 06:29:43;;;;;;;1.53;1.43;;;19.90;49.60;;;;;;5005158;28;20234;-74
2023/05/07 06:32:10;;;;;;;1.57;1.47;;;19.90;49.60;;;;;;5003801;28;20232;-73
2023/05/07 06:34:36;;;;;;;1.37;1.27;;;19.90;49.60;;;;;;5004581;28;20281;-82
2023/05/07 06:37:02;;;;;;;1.63;1.53;;;19.90;49.60;;;;;;5007460;28;20434;-74
2023/05/07 06:39:28;;;;;;;1.40;1.30;;;19.90;49.60;;;;;;5004530;28;20450;-73
2023/05/07 06:41:53;;;;;;;1.50;1.40;;;19.90;49.60;;;;;;4999204;28;20589;-74
2023/05/07 06:44:19;;;;;;;1.57;1.47;;;19.90;49.60;;;;;;5012850;28;20227;-75
2023/05/07 06:46:45;;;;;;;1.50;1.40;;;19.90;49.60;;;;;;5009336;28;20354;-74
2023/05/07 06:49:12;;;;;;;2.53;1.70;;;19.90;49.60;;;;;;5003550;28;20315;-74
2023/05/07 06:51:37;;;;;;;1.60;1.50;;;19.90;49.60;;;;;;5002564;28;20246;-75
2023/05/07 06:54:04;;;;;;;1.50;1.40;;;19.90;49.60;;;;;;5000819;28;20511;-74
2023/05/07 06:56:30;;;;;;;1.33;1.23;;;19.90;49.60;;;;;;4998377;28;20345;-73
2023/05/07 06:58:55;;;;;;;1.33;1.23;;;19.90;49.60;;;;;;5013633;28;20440;-74
2023/05/07 07:01:21;;;;;;;1.60;1.50;;;19.90;49.70;;;;;;4994645;28;20254;-74
2023/05/07 07:03:47;;;;;;;1.73;1.63;;;19.90;49.60;;;;;;5001323;28;20713;-74
2023/05/07 07:06:12;;;;;;;1.50;1.40;;;19.90;49.60;;;;;;5000002;28;20224;-74
2023/05/07 07:08:41;;;;;;;1.67;1.57;;;19.90;49.60;;;;;;5005646;28;20219;-74
2023/05/07 07:11:08;;;;;;;1.47;1.37;;;19.90;49.60;;;;;;5005413;28;20222;-74
2023/05/07 07:13:33;;;;;;;1.50;1.40;;;19.90;49.60;;;;;;4996037;28;20518;-74
2023/05/07 07:16:00;;;;;;;1.60;1.50;;;19.90;49.70;;;;;;4989690;28;20467;-74
2023/05/07 07:18:25;;;;;;;1.60;1.50;;;19.90;49.70;;;;;;5002932;28;20218;-74
2023/05/07 07:20:51;;;;;;;1.37;1.27;;;19.90;49.60;;;;;;4993246;28;20474;-74
2023/05/07 07:23:16;;;;;;;1.90;1.80;;;19.90;49.60;;;;;;5006318;28;20222;-74
2023/05/07 07:25:42;;;;;;;1.40;1.30;;;19.90;49.70;;;;;;5001784;28;20259;-74
2023/05/07 07:28:07;;;;;;;1.43;1.33;;;19.90;49.60;;;;;;4991940;28;20215;-74
2023/05/07 07:30:33;;;;;;;1.87;1.70;;;19.90;49.70;;;;;;4995686;28;20734;-74
2023/05/07 07:33:03;;;;;;;1.43;1.33;;;20.00;49.70;;;;;;4996122;28;20224;-73
2023/05/07 07:35:32;;;;;;;1.53;1.43;;;19.90;49.60;;;;;;4993762;28;20226;-73
2023/05/07 07:37:58;;;;;;;1.60;1.50;;;19.90;50.30;;;;;;5012085;28;20427;-73
2023/05/07 07:40:24;;;;;;;1.53;1.43;;;19.90;49.70;;;;;;5017020;28;20455;-73
2023/05/07 07:42:50;;;;;;;1.57;1.47;;;19.90;49.60;;;;;;5006698;28;20689;-74
2023/05/07 07:45:16;;;;;;;1.60;1.50;;;19.90;49.60;;;;;;5010497;28;20460;-77
2023/05/07 07:47:41;;;;;;;1.57;1.47;;;19.90;49.70;;;;;;5013134;28;20615;-76
2023/05/07 07:50:07;;;;;;;1.30;1.20;;;20.00;49.80;;;;;;5010676;28;20268;-75
2023/05/07 07:52:33;;;;;;;1.40;1.30;;;19.90;49.70;;;;;;4986143;28;20796;-74
2023/05/07 07:54:59;;;;;;;1.67;1.57;;;19.90;49.80;;;;;;4996655;28;20519;-73
2023/05/07 07:57:24;;;;;;;1.30;1.20;;;19.90;49.70;;;;;;5008966;28;20229;-73
2023/05/07 07:59:50;;;;;;;1.67;1.57;;;20.00;49.70;;;;;;5005007;28;20219;-73
2023/05/07 08:02:16;;;;;;;1.73;1.63;;;19.90;49.70;;;;;;5005622;28;22650;-72
2023/05/07 08:04:45;;;;;;;1.43;1.33;;;19.90;49.70;;;;;;5014732;28;20250;-74
2023/05/07 08:07:10;;;;;;;1.60;1.40;;;19.90;49.70;;;;;;5009193;28;20816;-74
2023/05/07 08:09:40;;;;;;;2.73;1.50;;;19.90;49.70;;;;;;4997162;28;20444;-74
2023/05/07 08:12:06;;;;;;;1.47;1.37;;;19.90;49.70;;;;;;4995026;28;20622;-74
2023/05/07 08:14:32;;;;;;;2.27;1.53;;;20.00;49.90;;;;;;5006977;28;20452;-73
2023/05/07 08:16:58;;;;;;;1.67;1.57;;;20.00;49.80;;;;;;4990237;28;20464;-74
2023/05/07 08:19:23;;;;;;;2.23;1.30;;;20.00;49.90;;;;;;5013010;28;20318;-73
2023/05/07 08:21:49;;;;;;;1.70;1.60;;;20.00;50.00;;;;;;5017763;28;20222;-73
2023/05/07 08:24:15;;;;;;;1.40;1.30;;;20.00;49.90;;;;;;5015529;28;20630;-73
2023/05/07 08:26:41;;;;;;;3.57;1.57;;;20.00;50.00;;;;;;5014130;28;20230;-73
2023/05/07 08:29:07;;;;;;;3.60;1.80;;;20.00;50.00;;;;;;5014307;28;20687;-73
2023/05/07 08:31:33;;;;;;;1.73;1.63;;;20.00;50.00;;;;;;5013250;28;20438;-73
2023/05/07 08:33:59;;;;;;;1.20;1.10;;;20.00;50.10;;;;;;5015064;28;21260;-73
2023/05/07 08:36:25;;;;;;;1.50;1.40;;;19.90;49.90;;;;;;5014376;28;20230;-73
2023/05/07 08:38:51;;;;;;;1.50;1.40;;;20.00;50.00;;;;;;5013568;28;21039;-73
2023/05/07 08:41:17;;;;;;;1.50;1.40;;;20.00;50.00;;;;;;5016776;28;20452;-74
2023/05/07 08:43:50;;;;;;;2.00;1.90;;;20.00;50.10;;;;;;5016101;28;20317;-74
2023/05/07 08:46:20;;;;;;;1.40;1.30;;;20.00;50.00;;;;;;5012610;28;20611;-74
2023/05/07 08:48:49;;;;;;;1.50;1.40;;;20.00;50.00;;;;;;5011336;28;20418;-74
2023/05/07 08:51:20;;;;;;;1.63;1.53;;;20.00;50.00;;;;;;5012146;28;20555;-74
2023/05/07 08:53:48;;;;;;;1.50;1.40;;;20.00;50.00;;;;;;5011652;28;21001;-74
2023/05/07 08:56:15;;;;;;;2.20;1.50;;;20.00;50.10;;;;;;5015959;28;20908;-74
2023/05/07 08:58:40;;;;;;;1.60;1.50;;;20.00;50.10;;;;;;5017602;28;20484;-74
2023/05/07 09:01:13;;;;;;;1.40;1.30;;;20.00;50.10;;;;;;5013315;28;20430;-74
2023/05/07 09:03:39;;;;;;;1.33;1.23;;;20.00;50.10;;;;;;5012754;28;20700;-74
2023/05/07 09:06:05;;;;;;;1.53;1.37;;;20.00;50.10;;;;;;4996630;28;20520;-74
2023/05/07 09:08:33;;;;;;;1.23;1.13;;;20.00;50.10;;;;;;5013162;28;20472;-74
2023/05/07 09:10:59;;;;;;;1.53;1.43;;;20.00;50.00;;;;;;5012969;28;20568;-74
2023/05/07 09:13:24;;;;;;;1.43;1.33;;;20.00;50.10;;;;;;5013342;28;20928;-74
2023/05/07 09:15:50;;;;;;;3.53;1.30;;;20.00;50.00;;;;;;4995778;28;20226;-74
2023/05/07 09:18:15;;;;;;;2.03;1.20;;;20.00;50.10;;;;;;4998938;28;20226;-74
2023/05/07 09:20:41;;;;;;;1.50;1.40;;;20.00;50.00;;;;;;5009792;28;20313;-73
2023/05/07 09:23:07;;;;;;;1.30;1.20;;;20.00;50.10;;;;;;5014717;28;20226;-74
2023/05/07 09:25:35;;;;;;;1.40;1.30;;;20.00;50.10;;;;;;5010107;28;20687;-75
2023/05/07 09:28:01;;;;;;;1.20;1.10;;;20.00;50.10;;;;;;5012609;28;21002;-75
2023/05/07 09:30:31;;;;;;;1.40;1.30;;;20.00;50.10;;;;;;5009515;28;20556;-74
2023/05/07 09:33:01;;;;;;;1.47;1.37;;;20.00;50.10;;;;;;4993683;28;20439;-74
2023/05/07 09:35:27;;;;;;;1.30;1.20;;;20.00;50.10;;;;;;5009823;28;20459;-73
2023/05/07 09:37:55;;;;;;;1.40;1.30;;;20.00;50.10;;;;;;5011221;28;20465;-74
2023/05/07 09:40:26;;;;;;;2.70;1.40;;;20.00;50.10;;;;;;4991158;28;20510;-75
2023/05/07 09:42:52;;;;;;;1.30;1.20;;;20.00;50.10;;;;;;5008111;28;20435;-75
2023/05/07 09:45:27;;;;;;;1.30;1.20;;;20.00;50.10;;;;;;4988440;28;20451;-74
2023/05/07 09:47:57;;;;;;;1.63;1.20;;;20.00;50.10;;;;;;5004711;28;20226;-73
2023/05/07 09:50:28;;;;;;;1.40;1.30;;;20.00;50.10;;;;;;4993768;28;20813;-75
2023/05/07 09:52:55;;;;;;;1.43;1.33;;;20.00;50.10;;;;;;4995412;28;20452;-74
2023/05/07 09:55:21;;;;;;;1.33;1.23;;;20.00;50.10;;;;;;5013435;28;20469;-74
2023/05/07 09:57:50;;;;;;;1.30;1.20;;;20.00;50.10;;;;;;5002346;28;20442;-73
2023/05/07 10:00:19;;;;;;;1.40;1.30;;;20.00;50.10;;;;;;4998870;28;21013;-75
2023/05/07 10:02:48;;;;;;;2.40;1.50;;;20.00;50.10;;;;;;4998209;28;20433;-74
2023/05/07 10:05:15;;;;;;;1.47;1.37;;;20.00;50.10;;;;;;4993349;28;23013;-74
2023/05/07 10:07:41;;;;;;;1.40;1.30;;;20.00;50.10;;;;;;5005536;28;20997;-74
2023/05/07 10:10:10;;;;;;;1.87;1.50;;;20.00;50.10;;;;;;4994812;28;20480;-74
2023/05/07 10:12:38;;;;;;;1.43;1.20;;;20.00;50.10;;;;;;5007682;28;20742;-75
2023/05/07 10:15:08;;;;;;;1.40;1.30;;;20.00;50.10;;;;;;4987459;28;21073;-74
2023/05/07 10:17:38;;;;;;;1.33;1.23;;;20.00;50.10;;;;;;4987502;28;20475;-75
2023/05/07 10:20:05;;;;;;;1.40;1.27;;;20.00;50.00;;;;;;4999171;28;20810;-75
2023/05/07 10:22:42;;;;;;;1.40;1.30;;;20.00;50.10;;;;;;4979589;28;20998;-74
2023/05/07 10:25:17;;;;;;;1.50;1.40;;;20.00;50.00;;;;;;5008165;28;20486;-74
2023/05/07 10:27:44;;;;;;;1.63;1.40;;;20.00;50.00;;;;;;4994962;28;20476;-74
2023/05/07 10:30:48;;;;;;;1.50;1.40;;;20.00;50.00;;;;;;4998512;28;20477;-75
2023/05/07 10:33:16;;;;;;;1.53;1.43;;;20.00;49.90;;;;;;5007289;28;20428;-74
2023/05/07 10:35:46;;;;;;;2.90;1.47;;;20.00;50.00;;;;;;5006114;28;20471;-74
2023/05/07 10:38:12;;;;;;;1.20;1.10;;;20.00;50.00;;;;;;5005711;28;20461;-73
2023/05/07 10:40:37;;;;;;;1.40;1.30;;;20.00;50.00;;;;;;5000546;28;20460;-73
2023/05/07 10:43:05;;;;;;;1.60;1.50;;;20.10;50.10;;;;;;5002648;28;20319;-73
2023/05/07 10:45:31;;;;;;;1.33;1.23;;;20.10;50.00;;;;;;5001329;28;20227;-73
2023/05/07 10:48:10;;;;;;;2.20;1.50;;;20.00;50.00;;;;;;5001323;28;20489;-73
2023/05/07 10:50:37;;;;;;;1.30;1.20;;;20.00;49.90;;;;;;5013194;28;20988;-73
2023/05/07 10:53:17;;;;;;;1.60;1.20;;;20.00;50.00;;;;;;5004667;28;20544;-73
2023/05/07 10:56:21;;;;;;;1.37;1.27;;;20.10;50.10;;;;;;4989084;28;20431;-73
2023/05/07 10:58:46;;;;;;;1.40;1.30;;;20.00;50.00;;;;;;5008098;28;20497;-73
2023/05/07 11:01:14;;;;;;;1.50;1.37;;;20.00;50.00;;;;;;5012315;28;20456;-73
2023/05/07 11:04:14;;;;;;;1.40;1.30;;;20.00;50.10;;;;;;5010311;28;20803;-73
2023/05/07 11:06:40;;;;;;;1.40;1.30;;;20.00;50.10;;;;;;5009001;28;20997;-73
2023/05/07 11:09:06;;;;;;;1.40;1.30;;;20.00;50.10;;;;;;5003592;28;20431;-73
2023/05/07 11:11:52;;;;;;;1.30;1.20;;;20.00;50.00;;;;;;5009360;28;21164;-73
2023/05/07 11:14:51;;;;;;;1.40;1.30;;;20.00;50.10;;;;;;5012012;28;20219;-73
2023/05/07 11:17:17;;;;;;;1.40;1.30;;;20.00;50.10;;;;;;4957880;28;20481;-73
2023/05/07 11:19:55;;;;;;;1.50;1.40;;;20.00;50.10;;;;;;4998386;28;20464;-73
2023/05/07 11:22:30;;;;;;;1.50;1.40;;;20.00;50.00;;;;;;4996225;28;20302;-73
2023/05/07 11:24:56;;;;;;;1.50;1.40;;;20.00;50.10;;;;;;5006194;28;20427;-73
2023/05/07 11:27:24;;;;;;;1.60;1.50;;;20.00;50.00;;;;;;4997523;28;20470;-73
2023/05/07 11:29:50;;;;;;;1.50;1.40;;;20.00;50.00;;;;;;4996705;28;20225;-73
2023/05/07 11:32:22;;;;;;;1.63;1.53;;;20.00;50.00;;;;;;5010550;28;21022;-73
2023/05/07 11:34:51;;;;;;;1.30;1.20;;;20.10;50.10;;;;;;5008306;28;20459;-73
2023/05/07 11:37:20;;;;;;;1.30;1.20;;;20.00;50.00;;;;;;5008947;28;20949;-73
2023/05/07 11:39:46;;;;;;;2.43;2.23;;;20.00;50.00;;;;;;4994046;28;20859;-72
2023/05/07 11:42:33;;;;;;;1.60;1.50;;;20.00;50.10;;;;;;5009713;28;20443;-72
2023/05/07 11:44:59;;;;;;;1.40;1.30;;;20.00;50.00;;;;;;4992115;28;21029;-73
2023/05/07 11:47:28;;;;;;;1.50;1.40;;;20.00;50.10;;;;;;5007327;28;20527;-73
2023/05/07 11:49:55;;;;;;;1.40;1.30;;;20.00;50.10;;;;;;4992318;28;20592;-73
2023/05/07 11:52:22;;;;;;;1.43;1.33;;;20.00;50.00;;;;;;5007132;28;20433;-73
2023/05/07 11:54:55;;;;;;;1.43;1.33;;;20.00;50.00;;;;;;5008323;28;20476;-73
2023/05/07 11:57:22;;;;;;;1.60;1.50;;;20.00;50.00;;;;;;5010944;28;20464;-73
2023/05/07 11:59:48;;;;;;;1.30;1.20;;;20.00;50.10;;;;;;5011108;28;20456;-73
2023/05/07 12:02:17;;;;;;;1.30;1.20;;;20.00;50.00;;;;;;5013177;28;21096;-73
2023/05/07 12:04:43;;;;;;;1.77;1.67;;;20.00;50.00;;;;;;5007493;28;20222;-73
2023/05/07 12:07:15;;;;;;;1.40;1.30;;;20.00;50.10;;;;;;5007516;28;20486;-73
2023/05/07 12:09:41;;;;;;;1.50;1.40;;;20.00;50.10;;;;;;4988772;28;20238;-72
2023/05/07 12:12:08;;;;;;;1.70;1.60;;;20.00;50.00;;;;;;5013728;28;20542;-73
2023/05/07 12:14:41;;;;;;;1.30;1.20;;;20.00;50.00;;;;;;5010615;28;20927;-73
2023/05/07 12:17:08;;;;;;;1.40;1.30;;;20.00;50.10;;;;;;4997563;28;20441;-73
2023/05/07 12:19:34;;;;;;;1.20;1.10;;;20.00;50.10;;;;;;5015641;28;21433;-73
2023/05/07 12:22:02;;;;;;;1.30;1.20;;;20.00;50.10;;;;;;4995445;28;20453;-73
2023/05/07 12:24:28;;;;;;;1.40;1.30;;;20.00;50.10;;;;;;5014495;28;20479;-72
2023/05/07 12:26:54;;;;;;;1.77;1.23;;;20.00;50.10;;;;;;5014408;28;20649;-73
2023/05/07 12:29:23;;;;;;;1.40;1.30;;;20.00;50.10;;;;;;5012803;28;20227;-73
2023/05/07 12:31:50;;;;;;;1.27;1.17;;;20.00;50.10;;;;;;5006583;28;20299;-73
2023/05/07 12:34:15;;;;;;;1.37;1.27;;;20.00;50.10;;;;;;4991858;28;20556;-73
2023/05/07 12:36:41;;;;;;;1.70;1.60;;;20.00;50.10;;;;;;4994912;28;20440;-72
2023/05/07 12:39:08;;;;;;;1.37;1.27;;;20.00;50.10;;;;;;4989625;28;20310;-73
2023/05/07 12:41:56;;;;;;;1.50;1.37;;;20.00;50.10;;;;;;4995918;28;20557;-73
2023/05/07 12:44:23;;;;;;;1.40;1.30;;;20.00;50.20;;;;;;4988208;28;20462;-73
2023/05/07 12:46:49;;;;;;;1.30;1.20;;;20.00;50.10;;;;;;4993287;28;20559;-73